createdAt,value
2022-08-03T00:00:15.516Z,18.78
2022-08-03T00:04:37.495Z,18.76
2022-08-03T00:08:40.086Z,18.70
2022-08-03T00:12:42.704Z,18.63
2022-08-03T00:16:44.893Z,18.54
2022-08-03T00:20:47.115Z,18.42
2022-08-03T00:24:49.228Z,18.37
2022-08-03T00:28:51.528Z,18.31
2022-08-03T00:32:53.636Z,18.17
2022-08-03T00:36:55.914Z,18.05
2022-08-03T00:40:58.045Z,18.01
2022-08-03T00:45:00.201Z,17.98
2022-08-03T00:49:02.523Z,17.86
2022-08-03T00:53:05.949Z,17.84
2022-08-03T00:57:08.738Z,17.87
2022-08-03T01:01:11.942Z,17.89
2022-08-03T01:05:14.465Z,17.85
2022-08-03T01:09:45.491Z,17.85
2022-08-03T01:14:18.419Z,17.83
2022-08-03T01:18:46.786Z,17.72
2022-08-03T01:23:08.433Z,17.54
2022-08-03T01:27:18.793Z,17.49
2022-08-03T01:31:25.841Z,17.51
2022-08-03T01:36:03.730Z,17.46
2022-08-03T01:40:08.439Z,17.39
2022-08-03T01:44:30.182Z,17.37
2022-08-03T01:48:33.832Z,17.37
2022-08-03T01:52:40.078Z,17.37
2022-08-03T01:56:44.278Z,17.27
2022-08-03T02:00:49.203Z,17.26
2022-08-03T02:04:53.896Z,17.24
2022-08-03T02:08:57.289Z,17.25
2022-08-03T02:13:02.178Z,17.27
2022-08-03T02:17:07.436Z,17.28
2022-08-03T02:21:11.635Z,17.30
2022-08-03T02:25:41.109Z,17.30
2022-08-03T02:29:49.542Z,17.30
2022-08-03T02:33:55.739Z,17.26
2022-08-03T02:38:01.972Z,17.04
2022-08-03T02:42:08.360Z,16.98
2022-08-03T02:46:14.584Z,17.01
2022-08-03T02:50:17.909Z,17.00
2022-08-03T02:54:22.880Z,16.89
2022-08-03T02:58:25.916Z,16.84
2022-08-03T03:02:28.905Z,16.83
2022-08-03T03:06:31.670Z,16.87
2022-08-03T03:10:34.413Z,16.90
2022-08-03T03:14:37.649Z,16.94
2022-08-03T03:18:40.342Z,16.91
2022-08-03T03:22:51.460Z,16.91
2022-08-03T03:26:54.157Z,16.99
2022-08-03T03:30:56.413Z,16.97
2022-08-03T03:34:59.678Z,16.98
2022-08-03T03:39:15.436Z,16.99
2022-08-03T03:43:18.633Z,16.99
2022-08-03T03:47:32.751Z,17.04
2022-08-03T03:51:35.347Z,17.07
2022-08-03T03:55:57.782Z,17.15
2022-08-03T04:00:00.502Z,17.23
2022-08-03T04:04:22.541Z,17.20
2022-08-03T04:08:43.250Z,17.23
2022-08-03T04:12:50.932Z,17.23
2022-08-03T04:17:02.291Z,17.37
2022-08-03T04:21:11.069Z,17.47
2022-08-03T04:25:17.822Z,17.54
2022-08-03T04:29:22.074Z,17.71
2022-08-03T04:33:29.624Z,17.90
2022-08-03T04:37:45.685Z,18.19
2022-08-03T04:42:08.171Z,18.47
2022-08-03T04:46:11.854Z,18.79
2022-08-03T04:50:20.919Z,19.21
2022-08-03T04:54:41.649Z,19.77
2022-08-03T04:58:44.125Z,20.11
2022-08-03T05:02:47.757Z,20.40
2022-08-03T05:06:55.122Z,20.56
2022-08-03T05:10:59.116Z,20.69
2022-08-03T05:15:02.136Z,20.99
2022-08-03T05:19:04.290Z,21.49
2022-08-03T05:23:06.345Z,21.98
2022-08-03T05:27:08.493Z,22.46
2022-08-03T05:31:11.805Z,22.81
2022-08-03T05:36:00.564Z,22.90
2022-08-03T05:39:36.389Z,22.85
2022-08-03T05:43:38.519Z,22.97
2022-08-03T05:47:44.804Z,23.26
2022-08-03T05:51:47.053Z,23.54
2022-08-03T05:56:03.508Z,23.85
2022-08-03T06:00:17.391Z,24.07
2022-08-03T06:04:21.399Z,24.26
2022-08-03T06:08:23.701Z,24.34
2022-08-03T06:12:25.791Z,24.36
2022-08-03T06:16:27.996Z,24.33
2022-08-03T06:20:30.101Z,24.28
2022-08-03T06:24:32.646Z,24.21
2022-08-03T06:28:53.038Z,24.15
2022-08-03T06:32:56.224Z,24.07
2022-08-03T06:37:01.934Z,24.00
2022-08-03T06:41:05.535Z,23.94
2022-08-03T06:45:11.424Z,23.89
2022-08-03T06:49:13.662Z,23.83
2022-08-03T06:53:21.326Z,23.80
2022-08-03T06:57:24.331Z,23.83
2022-08-03T07:01:26.402Z,23.96
2022-08-03T07:05:28.689Z,24.13
2022-08-03T07:09:30.937Z,24.29
2022-08-03T07:13:35.823Z,24.37
2022-08-03T07:17:38.079Z,24.40
2022-08-03T07:21:40.196Z,24.43
2022-08-03T07:25:42.304Z,24.49
2022-08-03T07:29:44.519Z,24.46
2022-08-03T07:33:46.621Z,24.39
2022-08-03T07:37:54.517Z,24.31
2022-08-03T07:41:57.493Z,24.22
2022-08-03T07:45:59.596Z,24.28
2022-08-03T07:50:01.844Z,24.74
2022-08-03T07:54:04.558Z,25.26
2022-08-03T07:58:11.877Z,25.83
2022-08-03T08:02:14.735Z,26.32
2022-08-03T08:06:17.645Z,26.65
2022-08-03T08:10:20.489Z,26.76
2022-08-03T08:14:22.688Z,26.73
2022-08-03T08:18:25.030Z,26.83
2022-08-03T08:22:30.594Z,26.79
2022-08-03T08:26:33.599Z,26.68
2022-08-03T08:30:36.118Z,26.62
2022-08-03T08:34:38.214Z,26.54
2022-08-03T08:38:42.205Z,26.48
2022-08-03T08:42:58.090Z,26.42
2022-08-03T08:47:03.601Z,26.40
2022-08-03T08:51:06.597Z,26.38
2022-08-03T08:55:10.639Z,26.39
2022-08-03T08:59:13.851Z,26.41
2022-08-03T09:03:29.137Z,26.49
2022-08-03T09:07:33.345Z,26.67
2022-08-03T09:11:53.434Z,26.78
2022-08-03T09:16:24.135Z,26.92
2022-08-03T09:20:28.932Z,27.01
2022-08-03T09:24:41.127Z,26.99
2022-08-03T09:29:00.519Z,26.90
2022-08-03T09:33:11.700Z,26.91
2022-08-03T09:37:16.514Z,27.01
2022-08-03T09:41:19.352Z,27.13
2022-08-03T09:45:28.003Z,27.13
2022-08-03T09:49:30.234Z,27.20
2022-08-03T09:53:42.797Z,27.26
2022-08-03T09:58:10.963Z,27.46
2022-08-03T10:02:24.839Z,27.75
2022-08-03T10:06:29.055Z,27.91
2022-08-03T10:10:43.305Z,28.22
2022-08-03T10:14:46.788Z,28.55
2022-08-03T10:18:48.989Z,28.65
2022-08-03T10:22:51.981Z,28.62
2022-08-03T10:27:01.423Z,28.53
2022-08-03T10:31:07.283Z,28.46
2022-08-03T10:35:20.226Z,28.11
2022-08-03T10:39:27.857Z,28.32
2022-08-03T10:43:57.441Z,28.57
2022-08-03T10:48:00.488Z,28.52
2022-08-03T10:52:09.683Z,28.44
2022-08-03T10:56:52.630Z,28.62
2022-08-03T11:00:55.754Z,28.97
2022-08-03T11:05:28.042Z,29.11
2022-08-03T11:09:42.149Z,29.08
2022-08-03T11:14:04.717Z,29.17
2022-08-03T11:18:11.223Z,29.26
2022-08-03T11:22:15.353Z,29.17
2022-08-03T11:26:19.121Z,29.06
2022-08-03T11:30:21.177Z,29.23
2022-08-03T11:34:29.648Z,29.45
2022-08-03T11:38:32.120Z,29.68
2022-08-03T11:42:34.839Z,29.97
2022-08-03T11:46:37.726Z,29.98
2022-08-03T11:50:40.133Z,30.14
2022-08-03T11:54:42.606Z,30.35
2022-08-03T11:59:11.043Z,30.56
2022-08-03T12:03:15.848Z,30.85
2022-08-03T12:08:02.675Z,31.04
2022-08-03T12:11:41.088Z,31.13
2022-08-03T12:16:00.769Z,31.18
2022-08-03T12:20:05.376Z,31.27
2022-08-03T12:24:07.737Z,31.30
2022-08-03T12:28:37.128Z,31.35
2022-08-03T12:32:43.290Z,31.22
2022-08-03T12:36:54.060Z,30.91
2022-08-03T12:40:58.433Z,30.82
2022-08-03T12:45:00.770Z,30.96
2022-08-03T12:49:14.906Z,31.11
2022-08-03T12:53:28.935Z,31.32
2022-08-03T12:57:41.988Z,31.48
2022-08-03T13:01:55.189Z,31.65
2022-08-03T13:05:58.603Z,31.71
2022-08-03T13:10:04.888Z,31.81
2022-08-03T13:14:10.201Z,31.82
2022-08-03T13:18:19.165Z,31.86
2022-08-03T13:22:24.531Z,31.93
2022-08-03T13:26:26.736Z,31.81
2022-08-03T13:30:30.340Z,31.68
2022-08-03T13:34:33.220Z,31.70
2022-08-03T13:38:35.472Z,31.77
2022-08-03T13:42:38.946Z,31.77
2022-08-03T13:46:41.433Z,31.65
2022-08-03T13:50:43.652Z,31.35
2022-08-03T13:54:46.315Z,31.06
2022-08-03T13:58:49.457Z,31.04
2022-08-03T14:02:52.411Z,31.13
2022-08-03T14:06:54.562Z,31.25
2022-08-03T14:10:56.813Z,31.39
2022-08-03T14:15:01.594Z,31.33
2022-08-03T14:19:04.768Z,31.37
2022-08-03T14:23:07.251Z,31.43
2022-08-03T14:27:09.531Z,31.56
2022-08-03T14:32:08.990Z,31.69
2022-08-03T14:35:34.581Z,31.86
2022-08-03T14:44:01.438Z,32.10
2022-08-03T14:50:28.637Z,32.19
2022-08-03T14:52:27.216Z,32.22
2022-08-03T14:56:29.332Z,32.18
2022-08-03T15:00:35.922Z,31.99
2022-08-03T15:04:37.953Z,31.66
2022-08-03T15:08:40.133Z,31.47
2022-08-03T15:12:42.336Z,31.22
2022-08-03T15:16:44.621Z,30.94
2022-08-03T15:20:50.357Z,30.84
2022-08-03T15:24:53.400Z,30.55
2022-08-03T15:28:55.797Z,30.51
2022-08-03T15:32:57.996Z,30.50
2022-08-03T15:37:00.224Z,30.60
2022-08-03T15:41:04.781Z,30.52
2022-08-03T15:45:07.485Z,30.24
2022-08-03T15:49:09.757Z,30.21
2022-08-03T15:53:11.997Z,30.15
2022-08-03T15:57:14.216Z,30.34
2022-08-03T16:01:19.627Z,30.41
2022-08-03T16:05:22.078Z,30.40
2022-08-03T16:09:43.342Z,30.54
2022-08-03T16:14:11.941Z,30.52
2022-08-03T16:18:08.956Z,30.58
2022-08-03T16:22:11.199Z,30.74
2022-08-03T16:26:16.467Z,30.77
2022-08-03T16:30:18.742Z,30.70
2022-08-03T16:34:21.090Z,30.61
2022-08-03T16:38:24.657Z,30.53
2022-08-03T16:42:26.906Z,30.47
2022-08-03T16:46:29.218Z,30.32
2022-08-03T16:50:31.543Z,30.16
2022-08-03T16:54:34.957Z,29.92
2022-08-03T16:58:42.220Z,29.69
2022-08-03T17:02:51.816Z,29.66
2022-08-03T17:06:55.117Z,29.67
2022-08-03T17:10:57.434Z,29.60
2022-08-03T17:14:59.671Z,29.51
2022-08-03T17:19:05.791Z,29.40
2022-08-03T17:23:34.991Z,29.30
2022-08-03T17:28:48.530Z,29.13
2022-08-03T17:32:09.515Z,28.86
2022-08-03T17:36:13.538Z,28.57
2022-08-03T17:40:17.580Z,28.29
2022-08-03T17:44:30.114Z,28.05
2022-08-03T17:48:35.571Z,27.78
2022-08-03T17:52:48.446Z,27.60
2022-08-03T17:57:21.897Z,27.42
2022-08-03T18:02:30.450Z,27.21
2022-08-03T18:06:37.769Z,26.91
2022-08-03T18:11:09.726Z,26.58
2022-08-03T18:15:26.961Z,26.27
2022-08-03T18:20:03.894Z,25.91
2022-08-03T18:23:59.458Z,25.58
2022-08-03T18:28:04.944Z,25.35
2022-08-03T18:32:13.259Z,25.14
2022-08-03T18:40:48.730Z,24.70
2022-08-03T18:44:54.299Z,24.55
2022-08-03T18:49:18.414Z,24.38
2022-08-03T18:54:02.952Z,24.20
2022-08-03T18:57:59.289Z,24.02
2022-08-03T19:02:19.286Z,23.86
2022-08-03T19:06:25.313Z,23.75
2022-08-03T19:10:34.434Z,23.66
2022-08-03T19:14:44.043Z,23.57
2022-08-03T19:18:49.980Z,23.47
2022-08-03T19:22:54.953Z,23.39
2022-08-03T19:26:59.349Z,23.23
2022-08-03T19:31:06.456Z,23.08
2022-08-03T19:35:13.530Z,22.94
2022-08-03T19:39:21.242Z,22.82
2022-08-03T19:43:53.187Z,22.71
2022-08-03T19:48:06.773Z,22.64
2022-08-03T19:52:16.370Z,22.57
2022-08-03T19:56:25.932Z,22.45
2022-08-03T20:00:34.072Z,22.32
2022-08-03T20:04:40.384Z,22.18
2022-08-03T20:08:44.136Z,22.06
2022-08-03T20:12:49.309Z,21.96
2022-08-03T20:16:53.169Z,21.82
2022-08-03T20:20:59.326Z,21.68
2022-08-03T20:25:07.846Z,21.60
2022-08-03T20:29:16.533Z,21.45
2022-08-03T20:33:19.521Z,21.27
2022-08-03T20:37:30.536Z,21.20
2022-08-03T20:41:35.927Z,20.97
2022-08-03T20:45:58.219Z,20.73
2022-08-03T20:50:01.616Z,20.51
2022-08-03T20:54:22.536Z,20.42
2022-08-03T20:58:27.718Z,20.39
2022-08-03T21:02:31.318Z,20.31
2022-08-03T21:06:53.100Z,20.28
2022-08-03T21:10:58.693Z,20.16
2022-08-03T21:12:58.650Z,24.90
2022-08-03T21:15:05.049Z,20.07
2022-08-03T21:19:07.849Z,19.95
2022-08-03T21:23:12.487Z,19.93
2022-08-03T21:27:36.283Z,19.92
2022-08-03T21:31:39.924Z,19.80
2022-08-03T21:35:45.411Z,19.60
2022-08-03T21:39:50.664Z,19.57
2022-08-03T21:43:53.378Z,19.60
2022-08-03T21:47:57.177Z,19.69
2022-08-03T21:52:02.836Z,19.67
2022-08-03T21:56:10.266Z,19.49
2022-08-03T22:00:16.129Z,19.42
2022-08-03T22:04:55.017Z,19.40
2022-08-03T22:08:42.628Z,19.38
2022-08-03T22:12:44.742Z,19.22
2022-08-03T22:16:48.966Z,19.10
2022-08-03T22:20:52.263Z,19.03
2022-08-03T22:25:07.705Z,19.03
2022-08-03T22:29:11.895Z,19.04
2022-08-03T22:33:14.769Z,19.06
2022-08-03T22:37:19.764Z,19.09
2022-08-03T22:41:22.863Z,19.12
2022-08-03T22:46:07.695Z,19.08
2022-08-03T22:49:49.648Z,19.06
2022-08-03T22:54:12.006Z,19.06
2022-08-03T22:58:17.106Z,19.03
2022-08-03T23:02:21.983Z,18.91
2022-08-03T23:06:26.732Z,18.82
2022-08-03T23:10:33.172Z,18.83
2022-08-03T23:14:39.000Z,18.89
2022-08-03T23:18:43.381Z,18.95
2022-08-03T23:22:47.758Z,18.84
2022-08-03T23:26:50.909Z,18.75
2022-08-03T23:30:54.492Z,18.75
2022-08-03T23:35:18.580Z,18.70
2022-08-03T23:39:22.386Z,18.72
2022-08-03T23:43:44.982Z,18.71
2022-08-03T23:47:49.967Z,18.70
2022-08-03T23:52:20.280Z,18.66
2022-08-03T23:56:41.821Z,18.46
